sensor_id;sensor_type;location;lat;lon;timestamp;P1;durP1;ratioP1;P2;durP2;ratioP2
21758;SDS011;11041;50.854;20.580;2023-06-14T00:00:39;11.70;;;8.50;;
21758;SDS011;11041;50.854;20.580;2023-06-14T00:03:26;9.40;;;7.60;;
21758;SDS011;11041;50.854;20.580;2023-06-14T00:05:53;9.55;;;7.72;;
21758;SDS011;11041;50.854;20.580;2023-06-14T00:08:19;8.93;;;7.72;;
21758;SDS011;11041;50.854;20.580;2023-06-14T00:10:48;10.07;;;7.28;;
21758;SDS011;11041;50.854;20.580;2023-06-14T00:13:15;11.25;;;7.28;;
21758;SDS011;11041;50.854;20.580;2023-06-14T00:15:42;10.68;;;7.80;;
21758;SDS011;11041;50.854;20.580;2023-06-14T00:18:08;9.60;;;7.90;;
21758;SDS011;11041;50.854;20.580;2023-06-14T00:20:37;10.63;;;7.72;;
21758;SDS011;11041;50.854;20.580;2023-06-14T00:23:04;8.68;;;7.55;;
21758;SDS011;11041;50.854;20.580;2023-06-14T00:25:31;13.48;;;8.13;;
21758;SDS011;11041;50.854;20.580;2023-06-14T00:27:58;12.65;;;8.30;;
21758;SDS011;11041;50.854;20.580;2023-06-14T00:30:25;10.32;;;8.20;;
21758;SDS011;11041;50.854;20.580;2023-06-14T00:32:56;10.80;;;7.60;;
21758;SDS011;11041;50.854;20.580;2023-06-14T00:35:23;12.52;;;8.25;;
21758;SDS011;11041;50.854;20.580;2023-06-14T00:37:51;8.18;;;7.35;;
21758;SDS011;11041;50.854;20.580;2023-06-14T00:40:17;9.60;;;8.50;;
21758;SDS011;11041;50.854;20.580;2023-06-14T00:42:44;11.20;;;9.60;;
21758;SDS011;11041;50.854;20.580;2023-06-14T00:45:10;12.32;;;9.30;;
21758;SDS011;11041;50.854;20.580;2023-06-14T00:47:37;13.55;;;9.88;;
21758;SDS011;11041;50.854;20.580;2023-06-14T00:50:07;12.25;;;9.80;;
21758;SDS011;11041;50.854;20.580;2023-06-14T00:52:37;11.40;;;8.95;;
21758;SDS011;11041;50.854;20.580;2023-06-14T00:55:03;12.77;;;9.00;;
21758;SDS011;11041;50.854;20.580;2023-06-14T00:57:31;11.75;;;9.23;;
21758;SDS011;11041;50.854;20.580;2023-06-14T00:59:58;11.55;;;9.52;;
21758;SDS011;11041;50.854;20.580;2023-06-14T01:02:24;14.90;;;10.27;;
21758;SDS011;11041;50.854;20.580;2023-06-14T01:04:51;11.93;;;10.10;;
21758;SDS011;11041;50.854;20.580;2023-06-14T01:13:35;15.07;;;8.90;;
21758;SDS011;11041;50.854;20.580;2023-06-14T01:16:11;15.88;;;9.63;;
21758;SDS011;11041;50.854;20.580;2023-06-14T01:18:40;14.80;;;10.48;;
21758;SDS011;11041;50.854;20.580;2023-06-14T01:21:21;15.35;;;10.77;;
21758;SDS011;11041;50.854;20.580;2023-06-14T01:23:53;16.58;;;11.70;;
21758;SDS011;11041;50.854;20.580;2023-06-14T01:26:23;15.50;;;12.07;;
21758;SDS011;11041;50.854;20.580;2023-06-14T01:28:54;19.83;;;13.07;;
21758;SDS011;11041;50.854;20.580;2023-06-14T01:31:24;17.83;;;12.68;;
21758;SDS011;11041;50.854;20.580;2023-06-14T01:33:52;20.67;;;14.73;;
21758;SDS011;11041;50.854;20.580;2023-06-14T01:36:20;17.60;;;14.10;;
21758;SDS011;11041;50.854;20.580;2023-06-14T01:38:52;21.42;;;15.05;;
21758;SDS011;11041;50.854;20.580;2023-06-14T01:41:22;21.60;;;15.25;;
21758;SDS011;11041;50.854;20.580;2023-06-14T01:43:50;21.42;;;15.25;;
21758;SDS011;11041;50.854;20.580;2023-06-14T01:46:18;21.15;;;14.80;;
21758;SDS011;11041;50.854;20.580;2023-06-14T01:48:46;23.88;;;16.13;;
21758;SDS011;11041;50.854;20.580;2023-06-14T01:51:13;19.88;;;16.52;;
21758;SDS011;11041;50.854;20.580;2023-06-14T01:53:40;24.80;;;17.60;;
21758;SDS011;11041;50.854;20.580;2023-06-14T01:56:06;21.75;;;16.98;;
21758;SDS011;11041;50.854;20.580;2023-06-14T01:58:32;22.50;;;17.92;;
21758;SDS011;11041;50.854;20.580;2023-06-14T02:00:59;24.00;;;18.83;;
21758;SDS011;11041;50.854;20.580;2023-06-14T02:03:26;23.92;;;17.70;;
21758;SDS011;11041;50.854;20.580;2023-06-14T02:05:53;24.30;;;17.58;;
21758;SDS011;11041;50.854;20.580;2023-06-14T02:08:20;25.23;;;17.85;;
21758;SDS011;11041;50.854;20.580;2023-06-14T02:10:49;23.98;;;17.95;;
21758;SDS011;11041;50.854;20.580;2023-06-14T02:13:15;20.17;;;16.27;;
21758;SDS011;11041;50.854;20.580;2023-06-14T02:15:42;22.63;;;16.58;;
21758;SDS011;11041;50.854;20.580;2023-06-14T02:18:09;22.70;;;15.75;;
21758;SDS011;11041;50.854;20.580;2023-06-14T02:20:37;20.50;;;15.73;;
21758;SDS011;11041;50.854;20.580;2023-06-14T02:23:03;20.60;;;15.82;;
21758;SDS011;11041;50.854;20.580;2023-06-14T02:25:31;23.13;;;15.85;;
21758;SDS011;11041;50.854;20.580;2023-06-14T02:27:57;21.58;;;17.67;;
21758;SDS011;11041;50.854;20.580;2023-06-14T02:30:23;21.63;;;17.38;;
21758;SDS011;11041;50.854;20.580;2023-06-14T02:32:50;20.40;;;16.88;;
21758;SDS011;11041;50.854;20.580;2023-06-14T02:35:16;22.45;;;16.77;;
21758;SDS011;11041;50.854;20.580;2023-06-14T02:37:43;21.17;;;17.13;;
21758;SDS011;11041;50.854;20.580;2023-06-14T02:40:10;24.60;;;18.27;;
21758;SDS011;11041;50.854;20.580;2023-06-14T02:42:37;22.27;;;18.40;;
21758;SDS011;11041;50.854;20.580;2023-06-14T02:45:04;29.23;;;20.23;;
21758;SDS011;11041;50.854;20.580;2023-06-14T02:47:31;27.85;;;19.83;;
21758;SDS011;11041;50.854;20.580;2023-06-14T02:49:57;28.13;;;20.15;;
21758;SDS011;11041;50.854;20.580;2023-06-14T02:52:24;24.30;;;20.42;;
21758;SDS011;11041;50.854;20.580;2023-06-14T02:54:50;28.40;;;19.88;;
21758;SDS011;11041;50.854;20.580;2023-06-14T02:57:17;25.55;;;19.45;;
21758;SDS011;11041;50.854;20.580;2023-06-14T02:59:44;23.98;;;19.70;;
21758;SDS011;11041;50.854;20.580;2023-06-14T03:02:10;24.50;;;19.10;;
21758;SDS011;11041;50.854;20.580;2023-06-14T03:04:37;23.13;;;19.77;;
21758;SDS011;11041;50.854;20.580;2023-06-14T03:07:04;22.52;;;20.10;;
21758;SDS011;11041;50.854;20.580;2023-06-14T03:09:38;25.30;;;20.23;;
21758;SDS011;11041;50.854;20.580;2023-06-14T03:12:05;24.00;;;21.08;;
21758;SDS011;11041;50.854;20.580;2023-06-14T03:14:34;30.00;;;21.17;;
21758;SDS011;11041;50.854;20.580;2023-06-14T03:17:00;29.27;;;23.10;;
21758;SDS011;11041;50.854;20.580;2023-06-14T03:19:28;25.63;;;20.90;;
21758;SDS011;11041;50.854;20.580;2023-06-14T03:21:54;26.13;;;22.17;;
21758;SDS011;11041;50.854;20.580;2023-06-14T03:24:25;25.50;;;22.23;;
21758;SDS011;11041;50.854;20.580;2023-06-14T03:27:02;22.58;;;19.10;;
21758;SDS011;11041;50.854;20.580;2023-06-14T03:29:29;30.67;;;23.67;;
21758;SDS011;11041;50.854;20.580;2023-06-14T03:31:57;21.63;;;18.23;;
21758;SDS011;11041;50.854;20.580;2023-06-14T03:34:26;20.75;;;18.30;;
21758;SDS011;11041;50.854;20.580;2023-06-14T03:36:53;22.90;;;17.70;;
21758;SDS011;11041;50.854;20.580;2023-06-14T03:39:20;21.30;;;17.80;;
21758;SDS011;11041;50.854;20.580;2023-06-14T03:41:47;19.83;;;17.67;;
21758;SDS011;11041;50.854;20.580;2023-06-14T03:44:15;22.98;;;18.77;;
21758;SDS011;11041;50.854;20.580;2023-06-14T03:46:44;21.42;;;17.83;;
21758;SDS011;11041;50.854;20.580;2023-06-14T03:49:12;17.50;;;15.60;;
21758;SDS011;11041;50.854;20.580;2023-06-14T03:51:39;21.67;;;16.75;;
21758;SDS011;11041;50.854;20.580;2023-06-14T03:54:06;19.35;;;16.45;;
21758;SDS011;11041;50.854;20.580;2023-06-14T03:56:33;20.60;;;16.15;;
21758;SDS011;11041;50.854;20.580;2023-06-14T03:59:00;15.45;;;13.60;;
21758;SDS011;11041;50.854;20.580;2023-06-14T04:01:27;19.05;;;13.68;;
21758;SDS011;11041;50.854;20.580;2023-06-14T04:03:56;18.48;;;14.95;;
21758;SDS011;11041;50.854;20.580;2023-06-14T04:06:23;20.77;;;15.80;;
21758;SDS011;11041;50.854;20.580;2023-06-14T04:08:51;20.40;;;16.85;;
21758;SDS011;11041;50.854;20.580;2023-06-14T04:11:17;18.63;;;15.05;;
21758;SDS011;11041;50.854;20.580;2023-06-14T04:13:44;17.83;;;15.93;;
21758;SDS011;11041;50.854;20.580;2023-06-14T04:16:10;16.77;;;13.70;;
21758;SDS011;11041;50.854;20.580;2023-06-14T04:18:37;15.45;;;12.48;;
21758;SDS011;11041;50.854;20.580;2023-06-14T04:21:03;16.40;;;11.35;;
21758;SDS011;11041;50.854;20.580;2023-06-14T04:23:30;14.63;;;11.18;;
21758;SDS011;11041;50.854;20.580;2023-06-14T04:25:58;17.45;;;10.55;;
21758;SDS011;11041;50.854;20.580;2023-06-14T04:28:28;14.85;;;11.68;;
21758;SDS011;11041;50.854;20.580;2023-06-14T04:30:55;16.00;;;10.77;;
21758;SDS011;11041;50.854;20.580;2023-06-14T04:33:22;15.25;;;11.13;;
21758;SDS011;11041;50.854;20.580;2023-06-14T04:35:50;12.45;;;10.40;;
21758;SDS011;11041;50.854;20.580;2023-06-14T04:38:19;10.85;;;9.20;;
21758;SDS011;11041;50.854;20.580;2023-06-14T04:40:50;13.32;;;11.07;;
21758;SDS011;11041;50.854;20.580;2023-06-14T04:43:18;11.98;;;10.70;;
21758;SDS011;11041;50.854;20.580;2023-06-14T04:45:51;15.70;;;10.02;;
21758;SDS011;11041;50.854;20.580;2023-06-14T04:48:20;12.45;;;9.90;;
21758;SDS011;11041;50.854;20.580;2023-06-14T04:50:48;13.02;;;10.57;;
21758;SDS011;11041;50.854;20.580;2023-06-14T04:53:19;13.60;;;10.65;;
21758;SDS011;11041;50.854;20.580;2023-06-14T04:55:48;14.65;;;10.80;;
21758;SDS011;11041;50.854;20.580;2023-06-14T04:58:16;18.13;;;10.18;;
21758;SDS011;11041;50.854;20.580;2023-06-14T05:00:42;14.93;;;11.40;;
21758;SDS011;11041;50.854;20.580;2023-06-14T05:03:09;17.00;;;11.73;;
21758;SDS011;11041;50.854;20.580;2023-06-14T05:05:39;13.95;;;11.20;;
21758;SDS011;11041;50.854;20.580;2023-06-14T05:08:07;13.60;;;11.70;;
21758;SDS011;11041;50.854;20.580;2023-06-14T05:10:35;18.60;;;11.20;;
21758;SDS011;11041;50.854;20.580;2023-06-14T05:13:02;16.80;;;11.48;;
21758;SDS011;11041;50.854;20.580;2023-06-14T05:15:29;12.63;;;11.15;;
21758;SDS011;11041;50.854;20.580;2023-06-14T05:17:56;12.75;;;11.40;;
21758;SDS011;11041;50.854;20.580;2023-06-14T05:20:23;14.93;;;10.77;;
21758;SDS011;11041;50.854;20.580;2023-06-14T05:22:52;14.48;;;11.65;;
21758;SDS011;11041;50.854;20.580;2023-06-14T05:25:19;16.98;;;12.18;;
21758;SDS011;11041;50.854;20.580;2023-06-14T05:27:47;14.77;;;12.25;;
21758;SDS011;11041;50.854;20.580;2023-06-14T05:30:14;15.02;;;12.57;;
21758;SDS011;11041;50.854;20.580;2023-06-14T05:32:41;12.95;;;11.57;;
21758;SDS011;11041;50.854;20.580;2023-06-14T05:35:08;19.17;;;12.45;;
21758;SDS011;11041;50.854;20.580;2023-06-14T05:37:36;15.48;;;12.98;;
21758;SDS011;11041;50.854;20.580;2023-06-14T05:40:03;15.85;;;12.02;;
21758;SDS011;11041;50.854;20.580;2023-06-14T05:42:35;18.67;;;12.57;;
21758;SDS011;11041;50.854;20.580;2023-06-14T05:45:01;13.40;;;11.95;;
21758;SDS011;11041;50.854;20.580;2023-06-14T05:47:28;14.68;;;11.70;;
21758;SDS011;11041;50.854;20.580;2023-06-14T05:49:55;15.43;;;13.20;;
21758;SDS011;11041;50.854;20.580;2023-06-14T05:52:21;15.50;;;12.35;;
21758;SDS011;11041;50.854;20.580;2023-06-14T05:54:48;18.63;;;13.18;;
21758;SDS011;11041;50.854;20.580;2023-06-14T05:57:15;15.55;;;12.48;;
21758;SDS011;11041;50.854;20.580;2023-06-14T05:59:41;18.52;;;12.43;;
21758;SDS011;11041;50.854;20.580;2023-06-14T06:02:08;13.82;;;11.85;;
21758;SDS011;11041;50.854;20.580;2023-06-14T06:04:35;18.52;;;12.13;;
21758;SDS011;11041;50.854;20.580;2023-06-14T06:07:01;13.02;;;11.68;;
21758;SDS011;11041;50.854;20.580;2023-06-14T06:09:29;13.23;;;11.43;;
21758;SDS011;11041;50.854;20.580;2023-06-14T06:11:56;17.63;;;11.35;;
21758;SDS011;11041;50.854;20.580;2023-06-14T06:14:22;13.50;;;11.23;;
21758;SDS011;11041;50.854;20.580;2023-06-14T06:16:48;14.02;;;10.85;;
21758;SDS011;11041;50.854;20.580;2023-06-14T06:19:15;17.60;;;11.70;;
21758;SDS011;11041;50.854;20.580;2023-06-14T06:21:41;13.75;;;10.88;;
21758;SDS011;11041;50.854;20.580;2023-06-14T06:24:08;13.05;;;10.23;;
21758;SDS011;11041;50.854;20.580;2023-06-14T06:27:00;11.45;;;9.80;;
21758;SDS011;11041;50.854;20.580;2023-06-14T06:29:52;10.85;;;8.80;;
21758;SDS011;11041;50.854;20.580;2023-06-14T06:32:43;25.73;;;16.92;;
21758;SDS011;11041;50.854;20.580;2023-06-14T06:35:35;13.27;;;10.45;;
21758;SDS011;11041;50.854;20.580;2023-06-14T06:38:27;11.48;;;9.68;;
21758;SDS011;11041;50.854;20.580;2023-06-14T06:41:19;14.65;;;10.27;;
21758;SDS011;11041;50.854;20.580;2023-06-14T06:44:10;11.68;;;9.65;;
21758;SDS011;11041;50.854;20.580;2023-06-14T06:47:01;14.18;;;9.70;;
21758;SDS011;11041;50.854;20.580;2023-06-14T07:12:07;11.45;;;7.40;;
21758;SDS011;11041;50.854;20.580;2023-06-14T07:14:34;9.57;;;7.20;;
21758;SDS011;11041;50.854;20.580;2023-06-14T07:17:01;10.43;;;8.10;;
21758;SDS011;11041;50.854;20.580;2023-06-14T07:19:27;11.00;;;7.88;;
21758;SDS011;11041;50.854;20.580;2023-06-14T07:21:56;8.75;;;7.25;;
21758;SDS011;11041;50.854;20.580;2023-06-14T07:24:24;10.40;;;7.53;;
21758;SDS011;11041;50.854;20.580;2023-06-14T07:26:50;7.70;;;6.85;;
21758;SDS011;11041;50.854;20.580;2023-06-14T07:29:17;9.02;;;6.93;;
21758;SDS011;11041;50.854;20.580;2023-06-14T07:31:43;8.48;;;7.10;;
21758;SDS011;11041;50.854;20.580;2023-06-14T07:34:10;8.23;;;7.20;;
21758;SDS011;11041;50.854;20.580;2023-06-14T07:36:37;9.55;;;6.43;;
21758;SDS011;11041;50.854;20.580;2023-06-14T07:39:04;7.55;;;6.10;;
21758;SDS011;11041;50.854;20.580;2023-06-14T07:41:32;7.10;;;6.03;;
21758;SDS011;11041;50.854;20.580;2023-06-14T07:43:59;8.55;;;6.43;;
21758;SDS011;11041;50.854;20.580;2023-06-14T07:46:25;7.45;;;6.38;;
21758;SDS011;11041;50.854;20.580;2023-06-14T07:48:52;8.50;;;6.32;;
21758;SDS011;11041;50.854;20.580;2023-06-14T07:51:18;6.88;;;6.15;;
21758;SDS011;11041;50.854;20.580;2023-06-14T07:53:45;9.85;;;5.90;;
21758;SDS011;11041;50.854;20.580;2023-06-14T07:56:12;7.47;;;5.35;;
21758;SDS011;11041;50.854;20.580;2023-06-14T07:58:39;9.68;;;5.50;;
21758;SDS011;11041;50.854;20.580;2023-06-14T08:01:05;9.25;;;5.75;;
21758;SDS011;11041;50.854;20.580;2023-06-14T08:03:33;8.35;;;5.38;;
21758;SDS011;11041;50.854;20.580;2023-06-14T08:06:00;11.95;;;5.75;;
21758;SDS011;11041;50.854;20.580;2023-06-14T08:08:27;7.00;;;6.07;;
21758;SDS011;11041;50.854;20.580;2023-06-14T08:10:56;6.88;;;5.70;;
21758;SDS011;11041;50.854;20.580;2023-06-14T08:13:23;11.00;;;6.35;;
21758;SDS011;11041;50.854;20.580;2023-06-14T08:15:50;7.60;;;6.47;;
21758;SDS011;11041;50.854;20.580;2023-06-14T08:18:17;7.90;;;6.32;;
21758;SDS011;11041;50.854;20.580;2023-06-14T08:20:43;8.32;;;5.78;;
21758;SDS011;11041;50.854;20.580;2023-06-14T08:23:10;9.45;;;6.43;;
21758;SDS011;11041;50.854;20.580;2023-06-14T08:25:37;8.55;;;6.55;;
21758;SDS011;11041;50.854;20.580;2023-06-14T08:28:03;8.00;;;6.85;;
21758;SDS011;11041;50.854;20.580;2023-06-14T08:30:30;6.53;;;5.93;;
21758;SDS011;11041;50.854;20.580;2023-06-14T08:32:56;8.70;;;6.57;;
21758;SDS011;11041;50.854;20.580;2023-06-14T08:35:23;6.45;;;5.72;;
21758;SDS011;11041;50.854;20.580;2023-06-14T08:37:49;7.20;;;6.13;;
21758;SDS011;11041;50.854;20.580;2023-06-14T08:40:21;8.77;;;6.35;;
21758;SDS011;11041;50.854;20.580;2023-06-14T08:42:52;6.57;;;5.80;;
21758;SDS011;11041;50.854;20.580;2023-06-14T08:45:20;10.73;;;6.20;;
21758;SDS011;11041;50.854;20.580;2023-06-14T08:47:48;8.68;;;7.10;;
21758;SDS011;11041;50.854;20.580;2023-06-14T08:50:21;7.78;;;6.45;;
21758;SDS011;11041;50.854;20.580;2023-06-14T08:52:51;11.07;;;5.97;;
21758;SDS011;11041;50.854;20.580;2023-06-14T08:55:23;9.10;;;7.32;;
21758;SDS011;11041;50.854;20.580;2023-06-14T08:57:56;7.18;;;5.90;;
21758;SDS011;11041;50.854;20.580;2023-06-14T09:00:24;8.48;;;6.95;;
21758;SDS011;11041;50.854;20.580;2023-06-14T09:02:54;9.02;;;6.68;;
21758;SDS011;11041;50.854;20.580;2023-06-14T09:05:24;8.43;;;5.93;;
21758;SDS011;11041;50.854;20.580;2023-06-14T09:07:52;11.88;;;6.40;;
21758;SDS011;11041;50.854;20.580;2023-06-14T09:10:25;8.50;;;5.60;;
21758;SDS011;11041;50.854;20.580;2023-06-14T09:12:54;9.35;;;5.90;;
21758;SDS011;11041;50.854;20.580;2023-06-14T09:15:22;10.30;;;5.93;;
21758;SDS011;11041;50.854;20.580;2023-06-14T09:17:49;9.43;;;5.80;;
21758;SDS011;11041;50.854;20.580;2023-06-14T09:20:17;5.75;;;5.15;;
21758;SDS011;11041;50.854;20.580;2023-06-14T09:22:44;9.23;;;5.53;;
21758;SDS011;11041;50.854;20.580;2023-06-14T09:25:11;6.78;;;5.75;;
21758;SDS011;11041;50.854;20.580;2023-06-14T09:27:41;6.15;;;5.53;;
21758;SDS011;11041;50.854;20.580;2023-06-14T09:30:10;8.70;;;5.25;;
21758;SDS011;11041;50.854;20.580;2023-06-14T09:32:38;6.32;;;5.40;;
21758;SDS011;11041;50.854;20.580;2023-06-14T09:35:06;6.95;;;5.53;;
21758;SDS011;11041;50.854;20.580;2023-06-14T09:37:35;7.82;;;5.82;;
21758;SDS011;11041;50.854;20.580;2023-06-14T09:40:05;7.13;;;5.53;;
21758;SDS011;11041;50.854;20.580;2023-06-14T09:42:33;8.32;;;5.53;;
21758;SDS011;11041;50.854;20.580;2023-06-14T09:45:01;11.63;;;5.53;;
21758;SDS011;11041;50.854;20.580;2023-06-14T09:47:29;9.52;;;5.75;;
21758;SDS011;11041;50.854;20.580;2023-06-14T09:49:56;7.72;;;5.53;;
21758;SDS011;11041;50.854;20.580;2023-06-14T09:52:23;8.70;;;5.72;;
21758;SDS011;11041;50.854;20.580;2023-06-14T09:54:52;7.95;;;5.70;;
21758;SDS011;11041;50.854;20.580;2023-06-14T09:57:22;9.68;;;5.72;;
21758;SDS011;11041;50.854;20.580;2023-06-14T09:59:56;9.40;;;5.82;;
21758;SDS011;11041;50.854;20.580;2023-06-14T10:02:37;10.13;;;6.25;;
21758;SDS011;11041;50.854;20.580;2023-06-14T10:05:14;9.40;;;6.10;;
21758;SDS011;11041;50.854;20.580;2023-06-14T10:07:52;10.52;;;5.47;;
21758;SDS011;11041;50.854;20.580;2023-06-14T10:10:25;10.02;;;5.82;;
21758;SDS011;11041;50.854;20.580;2023-06-14T10:12:53;11.73;;;6.25;;
21758;SDS011;11041;50.854;20.580;2023-06-14T10:15:25;9.80;;;6.22;;
21758;SDS011;11041;50.854;20.580;2023-06-14T10:18:19;9.43;;;6.35;;
21758;SDS011;11041;50.854;20.580;2023-06-14T10:24:03;8.35;;;6.30;;
21758;SDS011;11041;50.854;20.580;2023-06-14T10:26:54;10.27;;;6.05;;
21758;SDS011;11041;50.854;20.580;2023-06-14T10:29:24;10.90;;;6.38;;
21758;SDS011;11041;50.854;20.580;2023-06-14T10:31:55;8.98;;;6.13;;
21758;SDS011;11041;50.854;20.580;2023-06-14T10:34:25;10.63;;;6.28;;
21758;SDS011;11041;50.854;20.580;2023-06-14T10:37:08;7.80;;;6.25;;
21758;SDS011;11041;50.854;20.580;2023-06-14T10:39:40;8.20;;;6.57;;
21758;SDS011;11041;50.854;20.580;2023-06-14T10:42:09;8.25;;;6.35;;
21758;SDS011;11041;50.854;20.580;2023-06-14T10:44:43;10.25;;;6.00;;
21758;SDS011;11041;50.854;20.580;2023-06-14T10:49:52;7.80;;;6.88;;
21758;SDS011;11041;50.854;20.580;2023-06-14T10:52:33;10.00;;;6.75;;
21758;SDS011;11041;50.854;20.580;2023-06-14T10:55:08;8.52;;;6.47;;
21758;SDS011;11041;50.854;20.580;2023-06-14T10:57:42;9.70;;;7.60;;
21758;SDS011;11041;50.854;20.580;2023-06-14T11:00:12;10.35;;;7.10;;
21758;SDS011;11041;50.854;20.580;2023-06-14T11:05:42;8.90;;;6.68;;
21758;SDS011;11041;50.854;20.580;2023-06-14T11:11:34;9.93;;;6.90;;
21758;SDS011;11041;50.854;20.580;2023-06-14T11:14:04;8.45;;;6.80;;
21758;SDS011;11041;50.854;20.580;2023-06-14T11:16:31;8.07;;;6.85;;
21758;SDS011;11041;50.854;20.580;2023-06-14T11:19:00;10.07;;;7.15;;
21758;SDS011;11041;50.854;20.580;2023-06-14T11:21:31;9.20;;;6.97;;
21758;SDS011;11041;50.854;20.580;2023-06-14T11:23:59;9.23;;;7.85;;
21758;SDS011;11041;50.854;20.580;2023-06-14T11:26:29;12.20;;;7.57;;
21758;SDS011;11041;50.854;20.580;2023-06-14T11:29:00;12.25;;;8.27;;
21758;SDS011;11041;50.854;20.580;2023-06-14T11:31:27;9.75;;;6.85;;
21758;SDS011;11041;50.854;20.580;2023-06-14T11:33:56;12.50;;;8.30;;
21758;SDS011;11041;50.854;20.580;2023-06-14T11:36:28;10.07;;;7.78;;
21758;SDS011;11041;50.854;20.580;2023-06-14T11:39:00;11.40;;;7.80;;
21758;SDS011;11041;50.854;20.580;2023-06-14T11:41:32;8.60;;;7.20;;
21758;SDS011;11041;50.854;20.580;2023-06-14T11:44:02;12.50;;;8.18;;
21758;SDS011;11041;50.854;20.580;2023-06-14T11:46:30;12.80;;;8.80;;
21758;SDS011;11041;50.854;20.580;2023-06-14T11:48:56;8.68;;;7.32;;
21758;SDS011;11041;50.854;20.580;2023-06-14T11:51:23;9.23;;;7.93;;
21758;SDS011;11041;50.854;20.580;2023-06-14T11:53:50;8.27;;;7.18;;
21758;SDS011;11041;50.854;20.580;2023-06-14T11:56:17;12.93;;;7.45;;
21758;SDS011;11041;50.854;20.580;2023-06-14T11:58:45;9.48;;;8.15;;
21758;SDS011;11041;50.854;20.580;2023-06-14T12:01:18;11.70;;;7.53;;
21758;SDS011;11041;50.854;20.580;2023-06-14T12:03:51;9.48;;;7.65;;
21758;SDS011;11041;50.854;20.580;2023-06-14T12:06:27;9.93;;;7.75;;
21758;SDS011;11041;50.854;20.580;2023-06-14T12:09:04;9.27;;;7.63;;
21758;SDS011;11041;50.854;20.580;2023-06-14T12:11:38;9.32;;;7.53;;
21758;SDS011;11041;50.854;20.580;2023-06-14T12:14:05;13.13;;;8.18;;
21758;SDS011;11041;50.854;20.580;2023-06-14T12:16:35;12.20;;;7.57;;
21758;SDS011;11041;50.854;20.580;2023-06-14T12:19:13;10.95;;;7.97;;
21758;SDS011;11041;50.854;20.580;2023-06-14T12:21:42;10.98;;;8.30;;
21758;SDS011;11041;50.854;20.580;2023-06-14T12:24:16;10.35;;;7.85;;
21758;SDS011;11041;50.854;20.580;2023-06-14T12:26:43;13.77;;;8.48;;
21758;SDS011;11041;50.854;20.580;2023-06-14T12:29:10;14.25;;;7.45;;
21758;SDS011;11041;50.854;20.580;2023-06-14T12:31:38;12.07;;;8.48;;
21758;SDS011;11041;50.854;20.580;2023-06-14T12:34:04;13.55;;;9.48;;
21758;SDS011;11041;50.854;20.580;2023-06-14T12:36:31;11.68;;;9.38;;
21758;SDS011;11041;50.854;20.580;2023-06-14T12:38:57;15.48;;;9.73;;
21758;SDS011;11041;50.854;20.580;2023-06-14T12:41:24;17.50;;;9.88;;
21758;SDS011;11041;50.854;20.580;2023-06-14T12:43:52;15.25;;;9.65;;
21758;SDS011;11041;50.854;20.580;2023-06-14T12:46:18;14.40;;;10.70;;
21758;SDS011;11041;50.854;20.580;2023-06-14T12:48:46;17.13;;;10.43;;
21758;SDS011;11041;50.854;20.580;2023-06-14T12:51:13;12.10;;;10.73;;
21758;SDS011;11041;50.854;20.580;2023-06-14T12:53:39;14.65;;;11.20;;
21758;SDS011;11041;50.854;20.580;2023-06-14T12:56:06;15.45;;;10.55;;
21758;SDS011;11041;50.854;20.580;2023-06-14T12:58:32;15.07;;;10.35;;
21758;SDS011;11041;50.854;20.580;2023-06-14T13:00:59;13.68;;;10.80;;
21758;SDS011;11041;50.854;20.580;2023-06-14T13:03:25;12.02;;;10.80;;
21758;SDS011;11041;50.854;20.580;2023-06-14T13:05:52;11.77;;;10.35;;
21758;SDS011;11041;50.854;20.580;2023-06-14T13:08:19;13.68;;;10.38;;
21758;SDS011;11041;50.854;20.580;2023-06-14T13:10:45;11.30;;;9.65;;
21758;SDS011;11041;50.854;20.580;2023-06-14T13:13:12;15.15;;;10.27;;
21758;SDS011;11041;50.854;20.580;2023-06-14T13:15:39;12.90;;;8.90;;
21758;SDS011;11041;50.854;20.580;2023-06-14T13:18:05;12.43;;;8.80;;
21758;SDS011;11041;50.854;20.580;2023-06-14T13:20:32;14.15;;;9.68;;
21758;SDS011;11041;50.854;20.580;2023-06-14T13:22:58;12.45;;;9.43;;
21758;SDS011;11041;50.854;20.580;2023-06-14T13:25:25;11.73;;;9.77;;
21758;SDS011;11041;50.854;20.580;2023-06-14T13:27:51;17.05;;;10.38;;
21758;SDS011;11041;50.854;20.580;2023-06-14T13:30:18;11.40;;;9.93;;
21758;SDS011;11041;50.854;20.580;2023-06-14T13:32:45;15.20;;;10.82;;
21758;SDS011;11041;50.854;20.580;2023-06-14T13:35:13;11.60;;;10.40;;
21758;SDS011;11041;50.854;20.580;2023-06-14T13:37:40;13.20;;;11.27;;
21758;SDS011;11041;50.854;20.580;2023-06-14T13:40:06;13.02;;;11.68;;
21758;SDS011;11041;50.854;20.580;2023-06-14T13:42:33;14.85;;;12.02;;
21758;SDS011;11041;50.854;20.580;2023-06-14T13:45:02;15.55;;;12.68;;
21758;SDS011;11041;50.854;20.580;2023-06-14T13:47:30;8.90;;;6.53;;
21758;SDS011;11041;50.854;20.580;2023-06-14T13:49:57;7.60;;;5.53;;
21758;SDS011;11041;50.854;20.580;2023-06-14T13:52:24;11.80;;;7.18;;
21758;SDS011;11041;50.854;20.580;2023-06-14T13:54:51;23.65;;;10.20;;
21758;SDS011;11041;50.854;20.580;2023-06-14T13:57:17;20.55;;;9.73;;
21758;SDS011;11041;50.854;20.580;2023-06-14T13:59:44;19.80;;;10.18;;
21758;SDS011;11041;50.854;20.580;2023-06-14T14:02:11;50.17;;;16.30;;
21758;SDS011;11041;50.854;20.580;2023-06-14T14:04:38;17.70;;;12.18;;
21758;SDS011;11041;50.854;20.580;2023-06-14T14:07:06;23.63;;;10.93;;
21758;SDS011;11041;50.854;20.580;2023-06-14T14:09:34;15.93;;;13.20;;
21758;SDS011;11041;50.854;20.580;2023-06-14T14:12:01;26.98;;;16.33;;
21758;SDS011;11041;50.854;20.580;2023-06-14T14:14:29;29.40;;;22.20;;
21758;SDS011;11041;50.854;20.580;2023-06-14T14:16:58;26.90;;;18.95;;
21758;SDS011;11041;50.854;20.580;2023-06-14T14:19:26;18.77;;;13.73;;
21758;SDS011;11041;50.854;20.580;2023-06-14T14:21:52;21.65;;;13.15;;
21758;SDS011;11041;50.854;20.580;2023-06-14T14:24:19;17.73;;;11.75;;
21758;SDS011;11041;50.854;20.580;2023-06-14T14:26:45;16.40;;;12.30;;
21758;SDS011;11041;50.854;20.580;2023-06-14T14:29:16;12.98;;;10.45;;
21758;SDS011;11041;50.854;20.580;2023-06-14T14:31:43;17.55;;;11.23;;
21758;SDS011;11041;50.854;20.580;2023-06-14T14:34:21;18.95;;;12.57;;
21758;SDS011;11041;50.854;20.580;2023-06-14T14:36:53;16.13;;;11.27;;
21758;SDS011;11041;50.854;20.580;2023-06-14T14:39:20;16.73;;;12.05;;
21758;SDS011;11041;50.854;20.580;2023-06-14T14:41:47;20.15;;;14.00;;
21758;SDS011;11041;50.854;20.580;2023-06-14T14:44:13;14.00;;;12.07;;
21758;SDS011;11041;50.854;20.580;2023-06-14T14:46:40;14.65;;;12.15;;
21758;SDS011;11041;50.854;20.580;2023-06-14T14:49:07;16.10;;;12.15;;
21758;SDS011;11041;50.854;20.580;2023-06-14T14:51:51;13.82;;;11.85;;
21758;SDS011;11041;50.854;20.580;2023-06-14T14:54:17;17.83;;;12.02;;
21758;SDS011;11041;50.854;20.580;2023-06-14T14:56:44;15.18;;;13.57;;
21758;SDS011;11041;50.854;20.580;2023-06-14T14:59:10;18.33;;;12.20;;
21758;SDS011;11041;50.854;20.580;2023-06-14T15:01:37;15.88;;;12.18;;
21758;SDS011;11041;50.854;20.580;2023-06-14T15:04:04;12.45;;;9.65;;
21758;SDS011;11041;50.854;20.580;2023-06-14T15:06:30;14.73;;;9.40;;
21758;SDS011;11041;50.854;20.580;2023-06-14T15:08:57;11.07;;;8.48;;